Jaipur, India

6:19 PM IST on October 21, 2014 (GMT +0530)
Jaipur | Change Station
CLOSE
Current Station
Airport
Location: Jaipur,
Elevation: 1280 ft
Nearby Weather Stations

Elev 1280 ft 26.82 °N, 75.81 °E | Updated 19 minutes ago

Haze
Haze
88 °F
Feels Like 88 °F
N
2
Wind Variable Wind from Variable

Today
High -- | Low -- °F
--% Chance of Precip.
Yesterday
High -- | Low -- °F
Precip. -- in
6:29 AM 5:53 PM
Waning Crescent, 6% visible
Pressure 29.98 in
Visibility 1.9 miles
Clouds
Dew Point 50 °F
Humidity 27%
Rainfall 0.00 in
Snow Depth Not available.
UV Not available.
Pollen Not available.
Air Quality Not available.
Flu Activity Not available.
METAR VIJP 211230Z VRB02KT 3000 HZ NSC 31/10 Q1015 BECMG 2000

More Conditions Fewer Conditions

Pressure 29.98 in
Visibility 1.9 miles
Clouds
Dew Point 50 °F
Humidity 27%
Rainfall 0.00 in
Snow Depth Not available.
UV Not available.
Pollen Not available.
Air Quality Not available.
Flu Activity Not available.
METAR VIJP 211230Z VRB02KT 3000 HZ NSC 31/10 Q1015 BECMG 2000

More Conditions Fewer Conditions

10-Day Weather Forecast

Almanac

Astronomy

Oct. 21, 2014 Rise Set
Actual Time 6:29 AM IST 5:53 PM IST
Civil Twilight 6:05 AM IST 6:16 PM IST
Nautical Twilight 5:38 AM IST 6:43 PM IST
Astronomical Twilight 5:11 AM IST 7:10 PM IST
Moon 4:02 AM IST 4:20 PM IST
Length of Visible Light 12h 10m
Length of Day
11h 23m
Tomorrow will be 1m 28s shorter.
Waning Crescent, 6% of the Moon is Illuminated
Today
Waning Crescent
Oct 23
New
Oct 30
First Quarter
Nov 6
Full
Nov 14
Last Quarter

Yesterday's Extremes

Country Highs Country Lows

Community

WunderPhotos

Upload Photos

1,763,649 photos uploaded!

Nearby

Snow Depth

Not available.

Earthquake Activity

City Distance Mag. Time & Date
No recent earthquake activity has been reported nearby.
Minimum magnitude displayed is 2.5.

Coastal Water Temperatures

Place Temperature
No Stations Reporting

Nearby Weather Stations